Time;durP1;ratioP1;P1;durP2;ratioP2;P2;SDS_P1;SDS_P2;PMS_P1;PMS_P2;Temp;Humidity;BMP_temperature;BMP_pressure;BME280_temperature;BME280_humidity;BME280_pressure;Samples;Min_cycle;Max_cycle;Signal;HPM_P1;HPM_P2
2022/08/29 00:01:46;;;;;;;4.13;1.77;;;;;;;17.77;100.00;102166.78;5050790;28;20203;-74
2022/08/29 00:04:11;;;;;;;5.60;1.80;;;;;;;18.06;100.00;102198.84;5052180;28;20191;-74
2022/08/29 00:06:36;;;;;;;6.87;2.23;;;;;;;17.32;100.00;102105.16;5051824;28;20191;-74
2022/08/29 00:09:02;;;;;;;4.67;1.90;;;;;;;17.43;100.00;102128.06;5049308;28;20711;-74
2022/08/29 00:11:28;;;;;;;5.40;1.90;;;;;;;17.87;100.00;102210.63;5051146;28;20333;-74
2022/08/29 00:13:53;;;;;;;6.10;1.60;;;;;;;17.66;100.00;102151.19;5051184;28;20670;-74
2022/08/29 00:16:18;;;;;;;4.73;1.90;;;;;;;17.76;100.00;102171.41;5051276;28;20265;-74
2022/08/29 00:18:44;;;;;;;4.93;1.47;;;;;;;18.10;100.00;102196.53;5033779;28;20229;-74
2022/08/29 00:21:09;;;;;;;5.83;2.60;;;;;;;17.68;100.00;102151.81;5049592;28;20340;-74
2022/08/29 00:23:35;;;;;;;5.70;1.70;;;;;;;17.68;100.00;102117.34;5051517;28;20268;-74
2022/08/29 00:26:01;;;;;;;3.23;1.60;;;;;;;17.50;100.00;102138.91;5048090;28;20310;-74
2022/08/29 00:28:26;;;;;;;4.63;1.77;;;;;;;17.94;100.00;102191.63;5050820;28;20222;-74
2022/08/29 00:30:52;;;;;;;2.40;1.37;;;;;;;18.04;100.00;102200.13;5033787;28;20554;-74
2022/08/29 00:33:18;;;;;;;3.07;1.50;;;;;;;17.81;100.00;102209.59;5048606;28;20184;-74
2022/08/29 00:35:45;;;;;;;3.90;1.60;;;;;;;17.81;100.00;102204.16;5049521;28;20187;-74
2022/08/29 00:38:13;;;;;;;5.27;1.70;;;;;;;17.83;100.00;102218.34;5050686;28;20204;-74
2022/08/29 00:40:43;;;;;;;4.73;1.77;;;;;;;17.93;100.00;102214.34;5048275;28;20449;-74
2022/08/29 00:43:08;;;;;;;2.90;1.43;;;;;;;17.43;100.00;102157.91;5050265;28;20421;-74
2022/08/29 00:45:37;;;;;;;4.20;1.47;;;;;;;17.78;100.00;102230.91;5050664;28;20599;-73
2022/08/29 00:48:14;;;;;;;4.07;1.60;;;;;;;17.91;100.00;102227.31;5049703;28;20219;-74
2022/08/29 00:50:46;;;;;;;4.10;1.77;;;;;;;17.82;100.00;102226.72;5050286;28;20905;-74
2022/08/29 00:53:15;;;;;;;4.07;1.63;;;;;;;17.73;100.00;102215.22;5025858;28;20443;-74
2022/08/29 00:55:43;;;;;;;4.60;1.80;;;;;;;17.88;100.00;102225.88;5047413;28;20453;-74
2022/08/29 00:58:20;;;;;;;4.60;1.73;;;;;;;17.91;100.00;102224.63;5050294;28;20458;-74
2022/08/29 01:00:47;;;;;;;2.90;1.60;;;;;;;17.74;100.00;102224.22;5050004;28;20453;-74
2022/08/29 01:03:12;;;;;;;4.37;1.70;;;;;;;17.87;100.00;102231.50;5031089;28;20929;-74
2022/08/29 01:05:38;;;;;;;3.70;1.53;;;;;;;16.73;100.00;102103.34;5049148;28;20418;-74
2022/08/29 01:08:05;;;;;;;4.63;1.90;;;;;;;17.29;100.00;102194.22;5031526;28;20208;-74
2022/08/29 01:13:15;;;;;;;4.00;1.60;;;;;;;17.37;100.00;102200.28;5050701;28;20921;-74
2022/08/29 01:15:42;;;;;;;2.53;1.70;;;;;;;16.82;100.00;102107.53;5039309;28;20445;-73
2022/08/29 01:18:09;;;;;;;6.53;2.33;;;;;;;17.70;100.00;102220.25;5050317;28;20239;-73
2022/08/29 01:20:53;;;;;;;5.90;1.80;;;;;;;17.97;100.00;102243.59;5047637;28;20450;-73
2022/08/29 01:23:33;;;;;;;5.47;1.93;;;;;;;17.79;100.00;102238.84;5049588;28;20426;-74
2022/08/29 01:26:01;;;;;;;5.40;2.10;;;;;;;17.74;100.00;102238.59;5048298;28;20461;-73
2022/08/29 01:28:42;;;;;;;6.60;1.93;;;;;;;17.77;100.00;102234.63;5049255;28;21001;-74
2022/08/29 01:31:16;;;;;;;7.73;2.70;;;;;;;17.74;100.00;102240.50;5048769;28;20469;-73
2022/08/29 01:33:58;;;;;;;4.97;1.70;;;;;;;17.61;100.00;102244.03;5046476;28;20516;-73
2022/08/29 01:36:36;;;;;;;8.77;2.30;;;;;;;17.10;100.00;102145.25;5047903;28;20418;-73
2022/08/29 01:39:03;;;;;;;7.87;2.20;;;;;;;17.63;100.00;102241.97;5049829;28;20761;-73
2022/08/29 01:41:29;;;;;;;6.20;2.13;;;;;;;17.45;100.00;102228.22;5047263;28;20473;-74
2022/08/29 01:43:55;;;;;;;5.97;2.07;;;;;;;17.17;100.00;102165.03;5050438;28;20434;-74
2022/08/29 01:46:28;;;;;;;7.70;2.40;;;;;;;16.79;100.00;102116.09;5048503;28;20184;-74
2022/08/29 01:48:54;;;;;;;9.20;2.20;;;;;;;17.79;100.00;102246.97;5047583;28;20526;-74
2022/08/29 01:51:20;;;;;;;5.73;2.33;;;;;;;17.56;100.00;102208.56;5047760;28;20427;-73
2022/08/29 01:53:46;;;;;;;6.60;2.60;;;;;;;17.79;100.00;102257.84;5049435;28;20850;-73
2022/08/29 01:56:19;;;;;;;7.10;2.70;;;;;;;17.64;100.00;102257.19;5045528;28;20918;-74
2022/08/29 01:58:46;;;;;;;8.20;1.97;;;;;;;17.89;100.00;102251.13;5050064;28;20212;-73
2022/08/29 02:01:14;;;;;;;4.83;1.97;;;;;;;17.72;100.00;102262.41;5028901;28;20469;-73
2022/08/29 02:03:40;;;;;;;4.40;2.13;;;;;;;17.13;100.00;102181.97;5049496;28;20432;-74
2022/08/29 02:06:08;;;;;;;10.53;3.40;;;;;;;17.94;100.00;102254.88;5049192;28;20505;-73
2022/08/29 02:08:34;;;;;;;9.83;2.63;;;;;;;17.86;100.00;102251.56;5048824;28;20295;-73
2022/08/29 02:11:00;;;;;;;6.60;2.43;;;;;;;18.03;100.00;102253.59;5046779;28;20541;-74
2022/08/29 02:13:25;;;;;;;6.53;2.20;;;;;;;17.42;100.00;102171.69;5049014;28;20183;-74
2022/08/29 02:15:51;;;;;;;5.67;1.87;;;;;;;17.74;100.00;102210.63;5050197;28;20183;-73
2022/08/29 02:18:17;;;;;;;9.43;3.10;;;;;;;17.97;100.00;102253.63;5049366;28;20740;-73
2022/08/29 02:20:43;;;;;;;7.00;1.80;;;;;;;17.83;100.00;102253.63;5046930;28;20190;-73
2022/08/29 02:23:09;;;;;;;6.10;2.40;;;;;;;18.00;100.00;102254.00;5047982;28;20207;-73
2022/08/29 02:25:41;;;;;;;7.63;2.30;;;;;;;17.35;100.00;102175.22;5046050;28;20957;-73
2022/08/29 02:28:13;;;;;;;5.83;2.07;;;;;;;17.76;100.00;102236.53;5048847;28;20445;-74
2022/08/29 02:30:41;;;;;;;6.80;2.10;;;;;;;17.75;100.00;102244.88;5048649;28;20974;-74
2022/08/29 02:33:07;;;;;;;7.60;2.00;;;;;;;17.82;100.00;102251.16;5047784;28;20425;-73
2022/08/29 02:35:33;;;;;;;8.73;2.07;;;;;;;17.89;100.00;102251.97;5048771;28;20789;-73
2022/08/29 02:37:59;;;;;;;9.07;2.40;;;;;;;17.80;100.00;102242.38;5049466;28;20452;-73
2022/08/29 02:40:26;;;;;;;7.47;2.70;;;;;;;17.95;100.00;102218.53;5046114;28;20446;-73
2022/08/29 02:42:53;;;;;;;5.43;2.20;;;;;;;17.75;100.00;102193.31;5047418;28;20195;-73
2022/08/29 02:45:20;;;;;;;4.47;2.10;;;;;;;17.76;100.00;102233.81;5048175;28;20426;-73
2022/08/29 02:47:46;;;;;;;8.20;2.33;;;;;;;16.96;100.00;102102.13;5048147;28;20446;-73
2022/08/29 02:50:11;;;;;;;5.73;2.20;;;;;;;17.07;100.00;102145.69;5047382;28;20475;-73
2022/08/29 02:52:39;;;;;;;6.53;2.13;;;;;;;17.89;100.00;102241.09;5047182;28;20209;-73
2022/08/29 02:55:06;;;;;;;5.23;2.10;;;;;;;17.14;100.00;102141.06;5048040;28;20188;-73
2022/08/29 02:57:31;;;;;;;6.10;2.10;;;;;;;17.62;100.00;102221.31;5046543;28;21040;-74
2022/08/29 02:59:56;;;;;;;6.13;1.90;;;;;;;17.66;100.00;102216.28;5047746;28;20426;-73
2022/08/29 03:02:22;;;;;;;6.60;2.47;;;;;;;17.65;100.00;102247.16;5048431;28;20207;-73
2022/08/29 03:04:47;;;;;;;5.47;2.43;;;;;;;17.78;100.00;102241.75;5046446;28;20678;-74
2022/08/29 03:07:13;;;;;;;8.37;2.37;;;;;;;17.48;100.00;102195.25;5047071;28;20206;-71
2022/08/29 03:09:38;;;;;;;6.10;2.80;;;;;;;17.80;100.00;102245.94;5052339;28;20597;-72
2022/08/29 03:12:04;;;;;;;8.60;2.80;;;;;;;17.60;100.00;102216.09;5050710;28;20188;-72
2022/08/29 03:14:29;;;;;;;11.80;3.13;;;;;;;17.60;100.00;102207.94;5052645;28;20563;-72
2022/08/29 03:16:54;;;;;;;7.90;3.70;;;;;;;17.92;100.00;102243.38;5051509;28;20261;-72
2022/08/29 03:19:21;;;;;;;7.07;2.63;;;;;;;17.86;100.00;102238.81;5033839;28;20230;-72
2022/08/29 03:21:47;;;;;;;9.40;2.90;;;;;;;17.86;100.00;102238.81;5035538;28;20200;-72
2022/08/29 03:24:13;;;;;;;10.77;2.53;;;;;;;17.50;100.00;102182.28;5050505;28;20479;-72
2022/08/29 03:26:39;;;;;;;7.90;2.60;;;;;;;17.78;100.00;102245.28;5050103;28;20926;-72
2022/08/29 03:29:04;;;;;;;6.30;2.60;;;;;;;17.42;100.00;102177.13;5053411;28;20442;-72
2022/08/29 03:31:30;;;;;;;7.30;2.20;;;;;;;17.70;100.00;102245.47;5052039;28;20229;-72
2022/08/29 03:33:55;;;;;;;6.40;2.83;;;;;;;17.10;100.00;102129.00;5050304;28;20199;-72
2022/08/29 03:36:21;;;;;;;7.30;2.10;;;;;;;17.26;100.00;102175.69;5052057;28;20191;-72
2022/08/29 03:38:47;;;;;;;8.67;3.03;;;;;;;17.74;100.00;102248.63;5052165;28;20261;-72
2022/08/29 03:41:24;;;;;;;7.07;2.57;;;;;;;17.84;100.00;102241.72;5049725;28;20868;-72
2022/08/29 03:43:50;;;;;;;10.63;2.90;;;;;;;17.76;100.00;102241.94;5052832;28;20267;-73
2022/08/29 03:46:15;;;;;;;7.90;2.50;;;;;;;17.76;100.00;102239.25;5052523;28;20505;-72
2022/08/29 03:48:41;;;;;;;6.60;2.70;;;;;;;17.82;100.00;102241.13;5050838;28;20286;-72
2022/08/29 03:51:07;;;;;;;10.07;2.97;;;;;;;17.35;100.00;102172.53;5052033;28;20199;-72
2022/08/29 03:53:33;;;;;;;8.33;2.90;;;;;;;17.74;100.00;102248.63;5034756;28;20187;-70
2022/08/29 03:55:58;;;;;;;12.40;3.27;;;;;;;17.32;100.00;102172.94;5050392;28;20433;-72
2022/08/29 03:58:24;;;;;;;7.30;2.87;;;;;;;17.76;100.00;102244.66;5050352;28;20219;-71
2022/08/29 04:00:49;;;;;;;6.30;2.60;;;;;;;17.74;100.00;102225.03;5051164;28;20188;-71
2022/08/29 04:03:15;;;;;;;9.13;3.10;;;;;;;18.00;100.00;102247.75;5051033;28;20219;-72
2022/08/29 04:05:40;;;;;;;9.23;3.00;;;;;;;17.89;100.00;102238.38;5052783;28;20211;-69
2022/08/29 04:08:07;;;;;;;13.70;4.00;;;;;;;17.74;100.00;102197.06;5056632;28;20288;-72
2022/08/29 04:10:38;;;;;;;7.03;3.30;;;;;;;17.79;100.00;102235.28;5051047;28;20183;-72
2022/08/29 04:13:05;;;;;;;5.60;2.67;;;;;;;17.83;100.00;102239.25;5048915;28;20644;-71
2022/08/29 04:15:32;;;;;;;7.70;2.87;;;;;;;17.69;100.00;102216.69;5050384;28;20452;-71
2022/08/29 04:17:59;;;;;;;7.90;2.57;;;;;;;17.95;100.00;102247.56;5052189;28;20533;-72
2022/08/29 04:20:28;;;;;;;8.60;2.90;;;;;;;17.23;100.00;102154.41;5049441;28;20521;-72
2022/08/29 04:22:55;;;;;;;11.03;3.43;;;;;;;17.78;100.00;102258.88;5049326;28;20465;-72
2022/08/29 04:25:23;;;;;;;9.03;2.63;;;;;;;17.71;100.00;102251.78;5050470;28;20496;-73
2022/08/29 04:27:49;;;;;;;7.80;3.13;;;;;;;17.17;100.00;102158.78;5029694;28;20884;-72
2022/08/29 04:30:18;;;;;;;9.00;3.00;;;;;;;17.86;100.00;102241.53;5050324;28;20433;-72
2022/08/29 04:32:43;;;;;;;8.73;2.37;;;;;;;17.33;100.00;102174.63;5048753;28;20187;-72
2022/08/29 04:35:11;;;;;;;7.03;2.80;;;;;;;17.77;100.00;102259.88;5032898;28;20449;-72
2022/08/29 04:37:37;;;;;;;7.60;2.60;;;;;;;17.57;100.00;102197.53;5050994;28;20287;-72
2022/08/29 04:40:03;;;;;;;9.57;3.17;;;;;;;17.89;100.00;102251.13;5050861;28;20465;-72
2022/08/29 04:42:30;;;;;;;9.43;3.23;;;;;;;17.96;100.00;102249.22;5047683;28;20934;-72
2022/08/29 04:44:56;;;;;;;8.80;2.77;;;;;;;17.89;100.00;102248.41;5033573;28;20195;-73
2022/08/29 04:47:21;;;;;;;9.17;3.50;;;;;;;17.79;100.00;102238.84;5048666;28;21056;-72
2022/08/29 04:49:53;;;;;;;9.13;2.83;;;;;;;17.96;100.00;102252.75;5050907;28;20422;-72
2022/08/29 04:52:19;;;;;;;7.63;2.87;;;;;;;17.71;100.00;102236.31;5049628;28;20172;-72
2022/08/29 04:54:45;;;;;;;11.03;3.10;;;;;;;17.90;100.00;102256.31;5032455;28;20930;-72
2022/08/29 04:57:10;;;;;;;9.10;3.30;;;;;;;17.56;100.00;102233.00;5049570;28;20969;-72
2022/08/29 04:59:36;;;;;;;10.83;3.00;;;;;;;17.32;100.00;102205.47;5047157;28;20245;-73
2022/08/29 05:02:01;;;;;;;9.20;2.83;;;;;;;17.72;100.00;102256.97;5048366;28;20211;-72
2022/08/29 05:04:27;;;;;;;8.03;3.23;;;;;;;17.83;100.00;102263.66;5050850;28;20195;-72
2022/08/29 05:06:52;;;;;;;9.97;3.43;;;;;;;17.81;100.00;102274.72;5049044;28;20279;-73
2022/08/29 05:09:18;;;;;;;7.30;3.00;;;;;;;17.78;100.00;102264.28;5050686;28;20231;-73
2022/08/29 05:11:43;;;;;;;8.43;2.80;;;;;;;17.78;100.00;102266.19;5049385;28;20180;-73
2022/08/29 05:14:09;;;;;;;7.47;2.87;;;;;;;17.71;100.00;102274.31;5048319;28;20465;-73
2022/08/29 05:16:36;;;;;;;10.73;2.90;;;;;;;17.23;100.00;102187.78;5049849;28;20199;-72
2022/08/29 05:19:04;;;;;;;9.47;2.80;;;;;;;17.72;100.00;102254.25;5048307;28;20224;-72
2022/08/29 05:21:32;;;;;;;7.53;2.60;;;;;;;17.29;100.00;102200.50;5049440;28;20476;-72
2022/08/29 05:23:58;;;;;;;8.60;2.67;;;;;;;17.77;100.00;102235.47;5051003;28;20430;-73
2022/08/29 05:26:28;;;;;;;9.43;2.73;;;;;;;17.36;100.00;102174.22;5049211;28;20859;-72
2022/08/29 05:28:54;;;;;;;8.50;3.30;;;;;;;17.96;100.00;102271.75;5046362;28;20582;-73
2022/08/29 05:31:21;;;;;;;11.43;3.27;;;;;;;17.79;100.00;102225.28;5030238;28;20426;-72
2022/08/29 05:33:46;;;;;;;5.77;3.20;;;;;;;18.02;100.00;102283.66;5050600;28;20201;-72
2022/08/29 05:36:12;;;;;;;9.60;3.30;;;;;;;17.91;100.00;102259.91;5049613;28;21104;-72
2022/08/29 05:38:37;;;;;;;12.03;3.67;;;;;;;18.12;100.00;102285.94;5049892;28;20698;-72
2022/08/29 05:41:03;;;;;;;10.73;3.27;;;;;;;18.10;100.00;102291.56;5037799;28;20190;-72
2022/08/29 05:43:28;;;;;;;8.60;3.20;;;;;;;18.12;100.00;102285.94;5046763;28;20191;-72
2022/08/29 05:46:08;;;;;;;9.10;3.40;;;;;;;17.90;100.00;102253.63;5049641;28;20190;-72
2022/08/29 05:48:34;;;;;;;9.73;2.80;;;;;;;17.87;100.00;102242.34;5049763;28;20552;-72
2022/08/29 05:51:01;;;;;;;7.10;2.80;;;;;;;17.67;100.00;102209.81;5047804;28;20483;-72
2022/08/29 05:53:26;;;;;;;6.07;2.70;;;;;;;17.74;100.00;102216.91;5031334;28;20556;-73
2022/08/29 05:55:52;;;;;;;4.73;2.50;;;;;;;17.72;100.00;102207.31;5049546;28;20906;-73
2022/08/29 05:58:18;;;;;;;11.00;3.13;;;;;;;18.36;100.00;102295.25;5049826;28;20284;-73
2022/08/29 06:00:46;;;;;;;8.17;3.17;;;;;;;18.03;100.00;102237.28;5047284;28;20188;-72
2022/08/29 06:03:12;;;;;;;9.53;3.90;;;;;;;18.29;100.00;102296.09;5049064;28;20493;-72
2022/08/29 06:05:39;;;;;;;9.17;3.40;;;;;;;18.33;100.00;102287.53;5049140;28;20432;-72
2022/08/29 06:08:05;;;;;;;7.37;2.90;;;;;;;18.33;100.00;102282.91;5047589;28;20457;-72
2022/08/29 06:10:31;;;;;;;9.90;3.30;;;;;;;17.73;100.00;102212.50;5047895;28;20941;-72
2022/08/29 06:12:57;;;;;;;5.57;3.10;;;;;;;18.21;100.00;102284.66;5048037;28;20528;-72
2022/08/29 06:15:24;;;;;;;8.47;3.40;;;;;;;18.42;100.00;102295.19;5046341;28;20538;-73
2022/08/29 06:17:49;;;;;;;8.33;3.00;;;;;;;17.81;100.00;102201.44;5049411;28;20195;-72
2022/08/29 06:20:15;;;;;;;8.20;3.03;;;;;;;18.17;100.00;102243.50;5045703;28;20500;-72
2022/08/29 06:22:40;;;;;;;7.10;2.87;;;;;;;18.56;100.00;102304.13;5038315;28;20210;-72
2022/08/29 06:25:07;;;;;;;9.80;3.57;;;;;;;18.54;100.00;102287.19;5046718;28;20196;-73
2022/08/29 06:27:32;;;;;;;6.90;3.00;;;;;;;18.35;100.00;102244.69;5048896;28;20227;-72
2022/08/29 06:29:58;;;;;;;10.87;3.40;;;;;;;18.55;100.00;102285.34;5047195;28;20876;-72
2022/08/29 06:32:23;;;;;;;6.97;3.20;;;;;;;18.17;100.00;102265.25;5031990;28;20190;-72
2022/08/29 06:34:49;;;;;;;6.73;2.97;;;;;;;18.44;100.00;102265.13;5049834;28;20191;-72
2022/08/29 06:37:14;;;;;;;9.63;3.40;;;;;;;18.47;100.00;102292.69;5049507;28;20215;-73
2022/08/29 06:39:40;;;;;;;6.80;2.30;;;;;;;18.25;100.00;102245.13;5048991;28;20715;-72
2022/08/29 06:42:05;;;;;;;8.43;3.37;;;;;;;18.32;100.00;102270.41;5045922;28;20322;-73
2022/08/29 06:44:31;;;;;;;8.43;3.50;;;;;;;18.70;100.00;102308.44;5046390;28;20230;-73
2022/08/29 06:46:57;;;;;;;7.10;2.93;;;;;;;18.71;100.00;102323.69;5049373;28;20669;-73
2022/08/29 06:49:23;;;;;;;9.63;3.27;;;;;;;18.81;100.00;102315.13;5047214;28;20179;-72
2022/08/29 06:51:53;;;;;;;6.13;3.13;;;;;;;18.76;100.00;102309.50;5028756;28;20989;-73
2022/08/29 06:54:21;;;;;;;8.37;3.27;;;;;;;18.59;100.00;102284.69;5049249;28;20178;-73
2022/08/29 06:56:47;;;;;;;5.70;2.73;;;;;;;18.22;100.00;102221.13;5050307;28;20433;-72
2022/08/29 06:59:13;;;;;;;7.20;3.20;;;;;;;18.55;100.00;102260.91;5049045;28;20418;-73
2022/08/29 07:01:41;;;;;;;7.97;2.70;;;;;;;18.65;100.00;102272.94;5046514;28;20969;-73
2022/08/29 07:04:07;;;;;;;7.70;2.90;;;;;;;18.93;100.00;102302.50;5049078;28;20191;-73
2022/08/29 07:06:33;;;;;;;5.63;2.40;;;;;;;18.93;100.00;102304.38;5047625;28;20422;-73
2022/08/29 07:08:59;;;;;;;7.03;2.47;;;;;;;18.76;100.00;102284.22;5048660;28;20796;-73
2022/08/29 07:11:28;;;;;;;6.53;3.00;;;;;;;19.09;100.00;102306.59;5048450;28;20215;-73
2022/08/29 07:13:56;;;;;;;6.67;2.87;;;;;;;18.61;100.00;102235.56;5046578;28;20473;-73
2022/08/29 07:16:21;;;;;;;11.53;3.33;;;;;;;19.23;100.00;102310.03;5028864;28;20815;-73
2022/08/29 07:18:47;;;;;;;7.87;2.97;;;;;;;19.23;100.00;102274.66;5038784;28;20449;-73
2022/08/29 07:21:16;;;;;;;7.17;3.17;;;;;;;19.51;100.00;102293.25;5036380;28;20191;-73
2022/08/29 07:23:41;;;;;;;9.90;3.73;;;;;;;18.96;100.00;102204.19;5044904;28;20192;-73
2022/08/29 07:26:13;;;;;;;7.37;2.60;;;;;;;19.60;100.00;102281.03;5049132;28;20453;-72
2022/08/29 07:28:39;;;;;;;5.73;2.83;;;;;;;19.45;100.00;102285.16;5046229;28;20231;-73
2022/08/29 07:31:05;;;;;;;8.07;3.40;;;;;;;19.60;100.00;102270.16;5045052;28;20453;-73
2022/08/29 07:33:31;;;;;;;7.50;2.10;;;;;;;19.79;100.00;102294.72;5046876;28;20230;-73
2022/08/29 07:35:57;;;;;;;10.57;3.80;;;;;;;19.77;100.00;102285.94;5048388;28;20438;-72
2022/08/29 07:38:23;;;;;;;6.50;2.57;;;;;;;19.92;100.00;102291.00;5048358;28;20203;-72
2022/08/29 07:40:56;;;;;;;6.33;2.33;;;;;;;19.67;100.00;102253.78;5048681;28;20868;-72
2022/08/29 07:43:22;;;;;;;6.67;2.43;;;;;;;19.41;100.00;102206.72;5045794;28;20265;-73
2022/08/29 07:45:47;;;;;;;11.77;2.80;;;;;;;19.61;100.00;102211.09;5045955;28;20441;-72
2022/08/29 07:48:12;;;;;;;4.00;1.93;;;;;;;19.80;100.00;102248.19;5048932;28;20226;-73
2022/08/29 07:50:41;;;;;;;5.70;2.27;;;;;;;19.67;100.00;102206.66;5047065;28;20666;-73
2022/08/29 07:53:07;;;;;;;5.20;2.00;;;;;;;20.16;100.00;102268.31;5029978;28;20184;-73
2022/08/29 07:55:32;;;;;;;7.10;2.37;;;;;;;19.97;100.00;102223.91;5050732;28;20437;-72
2022/08/29 07:57:57;;;;;;;6.50;2.53;;;;;;;19.94;100.00;102254.34;5048888;28;20483;-73
2022/08/29 08:00:23;;;;;;;14.27;3.33;;;;;;;20.12;100.00;102277.19;5050811;28;20183;-73
2022/08/29 08:02:48;;;;;;;4.30;2.23;;;;;;;20.07;100.00;102275.94;5050464;28;20215;-73
2022/08/29 08:05:14;;;;;;;3.17;1.63;;;;;;;20.00;100.00;102294.28;5050882;28;20262;-73
2022/08/29 08:07:41;;;;;;;5.83;2.07;;;;;;;19.70;100.00;102296.03;5028180;28;20212;-73
2022/08/29 08:10:07;;;;;;;5.53;2.23;;;;;;;19.40;100.00;102261.34;5051714;28;20776;-73
2022/08/29 08:12:33;;;;;;;4.57;2.07;;;;;;;19.57;100.00;102302.44;5051471;28;20484;-73
2022/08/29 08:14:58;;;;;;;7.93;2.90;;;;;;;19.20;100.00;102253.34;5052102;28;20429;-73
2022/08/29 08:17:24;;;;;;;5.73;2.07;;;;;;;19.49;100.00;102311.69;5048765;28;20207;-73
2022/08/29 08:19:50;;;;;;;5.10;2.83;;;;;;;19.20;100.00;102256.06;5052529;28;20266;-72
2022/08/29 08:22:15;;;;;;;8.20;2.60;;;;;;;19.37;100.00;102300.69;5048952;28;20466;-73
2022/08/29 08:24:40;;;;;;;7.57;2.90;;;;;;;19.49;100.00;102292.66;5047227;28;20226;-73
2022/08/29 08:27:06;;;;;;;7.67;2.83;;;;;;;19.42;100.00;102300.03;5051526;28;20211;-73
2022/08/29 08:29:31;;;;;;;4.00;2.30;;;;;;;19.48;100.00;102299.16;5053138;28;20179;-73
2022/08/29 08:31:58;;;;;;;8.33;2.63;;;;;;;19.59;100.00;102306.59;5050333;28;20704;-73
2022/08/29 08:34:25;;;;;;;7.20;2.83;;;;;;;19.28;100.00;102249.53;5049221;28;20184;-73
2022/08/29 08:36:51;;;;;;;4.30;1.83;;;;;;;19.59;100.00;102303.03;5032123;28;20434;-73
2022/08/29 08:39:17;;;;;;;10.33;2.80;;;;;;;19.77;100.00;102299.56;5048852;28;20437;-73
2022/08/29 08:42:13;;;;;;;3.93;2.17;;;;;;;19.60;100.00;102270.16;5033593;28;20553;-73
2022/08/29 08:45:15;;;;;;;7.83;2.40;;;;;;;19.77;100.00;102310.44;5002990;28;20206;-73
2022/08/29 08:48:16;;;;;;;5.73;2.57;;;;;;;19.14;100.00;102235.19;5003800;28;20480;-73
2022/08/29 08:50:45;;;;;;;4.60;2.27;;;;;;;19.45;100.00;102285.16;5033946;28;20495;-73
2022/08/29 08:53:26;;;;;;;3.60;2.07;;;;;;;19.47;100.00;102267.56;5025419;28;20427;-73
2022/08/29 08:55:54;;;;;;;4.87;1.80;;;;;;;19.37;100.00;102249.00;5050709;28;20406;-73
2022/08/29 08:58:33;;;;;;;3.43;2.17;;;;;;;19.13;100.00;102200.91;5048463;28;20450;-73
2022/08/29 09:01:16;;;;;;;5.57;2.10;;;;;;;19.75;100.00;102293.50;5050497;28;21413;-73
2022/08/29 09:04:00;;;;;;;4.00;1.73;;;;;;;20.02;100.00;102310.41;5049388;28;20458;-73
2022/08/29 09:06:35;;;;;;;3.23;1.93;;;;;;;20.13;100.00;102314.25;5033055;28;20434;-72
2022/08/29 09:09:14;;;;;;;4.17;2.00;;;;;;;20.08;100.00;102287.69;5050986;28;20410;-73
2022/08/29 09:12:00;;;;;;;6.60;2.30;;;;;;;20.36;100.00;102308.09;5048724;28;20914;-72
2022/08/29 09:14:47;;;;;;;4.50;1.90;;;;;;;20.47;100.00;102316.34;5048775;28;20437;-73
2022/08/29 09:17:22;;;;;;;6.87;1.97;;;;;;;20.42;100.00;102313.47;5048730;28;21031;-73
2022/08/29 09:19:49;;;;;;;4.20;2.03;;;;;;;19.89;100.00;102217.94;5050596;28;20897;-73
2022/08/29 09:22:26;;;;;;;6.07;2.20;;;;;;;20.41;100.00;102306.38;5031210;28;20462;-73
2022/08/29 09:25:01;;;;;;;4.10;1.93;;;;;;;20.34;100.00;102305.63;5031597;28;20773;-73
2022/08/29 09:27:30;;;;;;;5.43;2.37;;;;;;;19.81;100.00;102225.34;5047693;28;20500;-73
2022/08/29 09:30:07;;;;;;;5.10;1.90;;;;;;;20.26;100.00;102306.75;5047089;28;20441;-72
2022/08/29 09:32:32;;;;;;;3.10;1.70;;;;;;;20.35;100.00;102310.00;5046461;28;20949;-73
2022/08/29 09:34:58;;;;;;;5.80;2.20;;;;;;;19.72;100.00;102199.50;5049645;28;20461;-73
2022/08/29 09:37:33;;;;;;;6.03;1.90;;;;;;;20.50;100.00;102306.88;5050897;28;20273;-73
2022/08/29 09:40:17;;;;;;;6.90;2.20;;;;;;;20.44;100.00;102307.81;5031657;28;20947;-73
2022/08/29 09:42:50;;;;;;;3.73;2.00;;;;;;;19.93;100.00;102230.91;5049262;28;20539;-73
2022/08/29 09:45:23;;;;;;;5.60;2.00;;;;;;;20.19;100.00;102269.75;5048530;28;20438;-75
2022/08/29 09:48:13;;;;;;;6.90;1.90;;;;;;;19.97;100.00;102251.16;5030284;28;20982;-75
2022/08/29 09:50:38;;;;;;;2.70;1.73;;;;;;;20.16;100.00;102251.13;5036921;28;20480;-75
2022/08/29 09:53:04;;;;;;;4.00;1.93;;;;;;;20.46;100.00;102303.78;5050180;28;20520;-75
2022/08/29 09:55:41;;;;;;;5.73;1.50;;;;;;;20.39;100.00;102304.91;5049599;28;20546;-75
2022/08/29 09:58:09;;;;;;;3.40;1.80;;;;;;;20.54;100.00;102300.78;5047826;28;20575;-74
2022/08/29 10:00:40;;;;;;;8.03;1.87;;;;;;;20.65;100.00;102301.03;5049016;28;20426;-74
2022/08/29 10:03:17;;;;;;;6.10;2.20;;;;;;;20.64;100.00;102296.66;5047594;28;20532;-75
2022/08/29 10:05:45;;;;;;;3.37;1.63;;;;;;;20.48;100.00;102236.25;5048197;28;20414;-75
2022/08/29 10:08:35;;;;;;;3.23;1.63;;;;;;;20.79;100.00;102253.44;5049282;28;20449;-74
2022/08/29 10:11:19;;;;;;;4.13;1.83;;;;;;;21.29;100.00;102296.75;5047819;28;20441;-74
2022/08/29 10:13:52;;;;;;;3.90;1.93;;;;;;;21.43;100.00;102295.47;5049251;28;20898;-75
2022/08/29 10:16:20;;;;;;;3.17;1.47;;;;;;;21.25;100.00;102279.16;5046944;28;20989;-74
2022/08/29 10:18:51;;;;;;;3.23;1.50;;;;;;;20.99;100.00;102261.31;5048043;28;20541;-74
2022/08/29 10:21:23;;;;;;;5.63;2.20;;;;;;;21.21;100.00;102294.34;5049150;28;20835;-74
2022/08/29 10:24:10;;;;;;;4.40;1.93;;;;;;;21.10;100.00;102278.78;5048956;28;20788;-75
2022/08/29 10:27:07;;;;;;;6.07;1.80;;;;;;;21.38;100.00;102300.00;5047030;28;20528;-75
2022/08/29 10:29:38;;;;;;;2.60;1.70;;;;;;;21.37;100.00;102301.88;5009067;28;20434;-74
2022/08/29 10:32:31;;;;;;;4.50;1.77;;;;;;;21.47;100.00;102290.38;5036316;28;20525;-75
2022/08/29 10:35:23;;;;;;;4.03;1.93;;;;;;;21.28;100.00;102286.88;5029057;28;20491;-74
2022/08/29 10:37:57;;;;;;;3.27;1.50;;;;;;;21.50;100.00;102283.63;5046890;28;20449;-75
2022/08/29 10:40:36;;;;;;;3.23;1.57;;;;;;;21.72;100.00;102278.38;5030621;28;20501;-75
2022/08/29 10:43:23;;;;;;;2.97;1.57;;;;;;;21.47;100.00;102243.16;5047934;28;20900;-75
2022/08/29 10:46:31;;;;;;;3.57;1.67;;;;;;;21.78;100.00;102282.88;5046380;28;20440;-74
2022/08/29 10:49:09;;;;;;;3.50;1.47;;;;;;;21.84;100.00;102284.66;5047796;28;20438;-74
2022/08/29 10:51:46;;;;;;;2.10;1.40;;;;;;;21.78;100.00;102286.44;5048463;28;20428;-74
2022/08/29 10:54:47;;;;;;;4.40;1.80;;;;;;;21.14;100.00;102222.69;5047858;28;20495;-74
2022/08/29 10:57:30;;;;;;;3.17;1.40;;;;;;;21.27;100.00;102287.13;5029430;28;20470;-75
2022/08/29 11:00:04;;;;;;;3.27;1.80;;;;;;;21.48;100.00;102292.03;5048970;28;20529;-75
2022/08/29 11:02:33;;;;;;;2.50;1.37;;;;;;;21.25;100.00;102260.06;5047091;28;20468;-74
2022/08/29 11:05:05;;;;;;;3.80;1.57;;;;;;;21.42;100.00;102298.44;5049125;28;20422;-75
2022/08/29 11:07:36;;;;;;;4.03;1.73;;;;;;;20.61;100.00;102183.47;5048707;28;20531;-74
2022/08/29 11:10:11;;;;;;;2.50;1.83;;;;;;;21.55;100.00;102297.38;5046505;28;20465;-74
2022/08/29 11:12:51;;;;;;;4.40;1.60;;;;;;;21.48;100.00;102316.59;5024134;28;20942;-74
2022/08/29 11:15:19;;;;;;;3.30;1.40;;;;;;;21.58;100.00;102295.00;5048295;28;20430;-75
2022/08/29 11:17:52;;;;;;;2.10;1.47;;;;;;;21.43;100.00;102287.28;5045954;28;20466;-75
2022/08/29 11:20:23;;;;;;;2.57;1.53;;;;;;;20.64;100.00;102203.97;5029593;28;20433;-75
2022/08/29 11:22:58;;;;;;;2.60;1.40;;;;;;;21.06;100.00;102300.25;5046683;28;21088;-74
2022/08/29 11:25:24;;;;;;;4.57;1.80;;;;;;;21.04;100.00;102263.38;5047698;28;20460;-74
2022/08/29 11:28:04;;;;;;;2.20;1.17;;;;;;;21.46;100.00;102288.69;5048394;28;20485;-75
2022/08/29 11:30:46;;;;;;;2.07;1.30;;;;;;;21.72;100.00;102286.56;5048329;28;20237;-74